sensor_id;sensor_type;location;lat;lon;timestamp;temperature;humidity
20438;DHT22;65664;50.380;8.812;2024-01-11T04:58:10;-2.30;15.80
20438;DHT22;65664;50.380;8.812;2024-01-11T17:38:57;1.90;1.00
20438;DHT22;65664;50.380;8.812;2024-01-11T19:10:33;1.30;10.50
20438;DHT22;65664;50.380;8.812;2024-01-11T19:13:00;1.20;13.80
20438;DHT22;65664;50.380;8.812;2024-01-11T20:08:36;1.30;50.10
20438;DHT22;65664;50.380;8.812;2024-01-11T20:11:04;1.40;52.80
20438;DHT22;65664;50.380;8.812;2024-01-11T20:13:32;1.40;54.90
20438;DHT22;65664;50.380;8.812;2024-01-11T20:16:00;1.60;52.50
20438;DHT22;65664;50.380;8.812;2024-01-11T21:14:08;1.90;63.70
20438;DHT22;65664;50.380;8.812;2024-01-11T21:16:35;1.90;65.00
20438;DHT22;65664;50.380;8.812;2024-01-11T21:19:02;1.90;66.90
20438;DHT22;65664;50.380;8.812;2024-01-11T21:21:30;1.90;68.30
20438;DHT22;65664;50.380;8.812;2024-01-11T21:23:57;2.00;67.40
20438;DHT22;65664;50.380;8.812;2024-01-11T21:26:26;2.10;64.70
20438;DHT22;65664;50.380;8.812;2024-01-11T21:28:54;2.20;64.80
20438;DHT22;65664;50.380;8.812;2024-01-11T21:31:23;2.20;64.80
20438;DHT22;65664;50.380;8.812;2024-01-11T21:33:50;2.10;64.70
20438;DHT22;65664;50.380;8.812;2024-01-11T21:36:17;2.20;64.70
20438;DHT22;65664;50.380;8.812;2024-01-11T21:38:49;2.20;64.80
20438;DHT22;65664;50.380;8.812;2024-01-11T21:41:17;2.20;64.80
20438;DHT22;65664;50.380;8.812;2024-01-11T21:43:44;2.10;66.10
20438;DHT22;65664;50.380;8.812;2024-01-11T21:46:11;2.00;67.90
20438;DHT22;65664;50.380;8.812;2024-01-11T21:48:40;1.90;71.10
20438;DHT22;65664;50.380;8.812;2024-01-11T21:51:07;2.00;71.40
20438;DHT22;65664;50.380;8.812;2024-01-11T21:53:34;2.00;71.50
20438;DHT22;65664;50.380;8.812;2024-01-11T21:56:03;1.90;72.60
20438;DHT22;65664;50.380;8.812;2024-01-11T21:58:32;1.90;73.20
20438;DHT22;65664;50.380;8.812;2024-01-11T22:00:59;2.00;72.80
20438;DHT22;65664;50.380;8.812;2024-01-11T22:03:27;2.10;72.00
20438;DHT22;65664;50.380;8.812;2024-01-11T22:05:55;2.00;72.30
20438;DHT22;65664;50.380;8.812;2024-01-11T22:08:22;2.00;72.20
20438;DHT22;65664;50.380;8.812;2024-01-11T22:10:49;2.10;71.40
20438;DHT22;65664;50.380;8.812;2024-01-11T22:13:17;2.10;70.70
20438;DHT22;65664;50.380;8.812;2024-01-11T22:15:44;2.10;70.70
20438;DHT22;65664;50.380;8.812;2024-01-11T22:18:11;2.20;69.60
20438;DHT22;65664;50.380;8.812;2024-01-11T22:20:38;2.20;70.30
20438;DHT22;65664;50.380;8.812;2024-01-11T22:23:06;2.20;70.00
20438;DHT22;65664;50.380;8.812;2024-01-11T22:25:33;2.20;69.60
20438;DHT22;65664;50.380;8.812;2024-01-11T22:28:00;2.20;70.30
20438;DHT22;65664;50.380;8.812;2024-01-11T22:30:26;2.20;69.60
20438;DHT22;65664;50.380;8.812;2024-01-11T22:32:53;2.20;69.40
20438;DHT22;65664;50.380;8.812;2024-01-11T22:35:20;2.20;70.30
20438;DHT22;65664;50.380;8.812;2024-01-11T22:37:47;2.20;69.80
20438;DHT22;65664;50.380;8.812;2024-01-11T22:40:15;2.10;70.10
20438;DHT22;65664;50.380;8.812;2024-01-11T22:42:43;2.10;70.50
20438;DHT22;65664;50.380;8.812;2024-01-11T22:45:09;2.10;69.80
20438;DHT22;65664;50.380;8.812;2024-01-11T22:47:36;2.10;69.30
20438;DHT22;65664;50.380;8.812;2024-01-11T22:50:07;2.00;70.60
20438;DHT22;65664;50.380;8.812;2024-01-11T22:52:34;2.10;70.00
20438;DHT22;65664;50.380;8.812;2024-01-11T22:55:00;2.00;70.70
20438;DHT22;65664;50.380;8.812;2024-01-11T22:57:29;2.00;71.20
20438;DHT22;65664;50.380;8.812;2024-01-11T22:59:56;2.10;71.40
20438;DHT22;65664;50.380;8.812;2024-01-11T23:02:22;2.10;70.00
20438;DHT22;65664;50.380;8.812;2024-01-11T23:04:49;2.10;70.30
20438;DHT22;65664;50.380;8.812;2024-01-11T23:07:16;2.00;71.10
20438;DHT22;65664;50.380;8.812;2024-01-11T23:09:43;2.10;71.20
20438;DHT22;65664;50.380;8.812;2024-01-11T23:12:10;2.10;71.90
20438;DHT22;65664;50.380;8.812;2024-01-11T23:14:38;2.10;71.70
20438;DHT22;65664;50.380;8.812;2024-01-11T23:17:05;2.10;71.50
20438;DHT22;65664;50.380;8.812;2024-01-11T23:19:32;2.10;72.00
20438;DHT22;65664;50.380;8.812;2024-01-11T23:21:59;2.10;71.50
20438;DHT22;65664;50.380;8.812;2024-01-11T23:24:26;2.10;72.30
20438;DHT22;65664;50.380;8.812;2024-01-11T23:26:53;2.10;72.30
20438;DHT22;65664;50.380;8.812;2024-01-11T23:29:20;2.10;73.10
20438;DHT22;65664;50.380;8.812;2024-01-11T23:31:48;2.10;72.40
20438;DHT22;65664;50.380;8.812;2024-01-11T23:34:16;2.10;72.70
20438;DHT22;65664;50.380;8.812;2024-01-11T23:36:45;2.00;73.30
20438;DHT22;65664;50.380;8.812;2024-01-11T23:39:12;2.10;73.90
20438;DHT22;65664;50.380;8.812;2024-01-11T23:41:39;2.10;74.90
20438;DHT22;65664;50.380;8.812;2024-01-11T23:44:06;2.10;73.90
20438;DHT22;65664;50.380;8.812;2024-01-11T23:46:33;2.00;73.60
20438;DHT22;65664;50.380;8.812;2024-01-11T23:49:02;2.00;74.10
20438;DHT22;65664;50.380;8.812;2024-01-11T23:51:28;2.10;73.80
20438;DHT22;65664;50.380;8.812;2024-01-11T23:53:56;2.10;74.20
20438;DHT22;65664;50.380;8.812;2024-01-11T23:56:22;2.20;74.10
20438;DHT22;65664;50.380;8.812;2024-01-11T23:58:49;2.20;74.60
